createdAt,value
2023-12-09T00:00:01.554Z,26.50
2023-12-09T00:01:01.334Z,23.93
2023-12-09T00:02:01.122Z,25.43
2023-12-09T00:03:01.386Z,24.07
2023-12-09T00:04:01.474Z,20.00
2023-12-09T00:05:02.476Z,19.57
2023-12-09T00:06:01.262Z,21.87
2023-12-09T00:07:01.640Z,20.60
2023-12-09T00:08:01.103Z,19.03
2023-12-09T00:09:01.241Z,19.27
2023-12-09T00:10:02.262Z,21.27
2023-12-09T00:11:01.520Z,19.90
2023-12-09T00:12:01.465Z,24.37
2023-12-09T00:13:01.102Z,20.33
2023-12-09T00:14:03.898Z,18.83
2023-12-09T00:15:01.496Z,20.43
2023-12-09T00:16:01.155Z,19.40
2023-12-09T00:17:01.122Z,17.17
2023-12-09T00:18:01.359Z,18.17
2023-12-09T00:19:01.275Z,19.87
2023-12-09T00:20:01.440Z,18.97
2023-12-09T00:21:01.491Z,15.73
2023-12-09T00:22:01.458Z,17.00
2023-12-09T00:23:01.096Z,16.73
2023-12-09T00:24:01.800Z,17.90
2023-12-09T00:25:01.330Z,17.00
2023-12-09T00:26:01.096Z,17.47
2023-12-09T00:27:01.151Z,18.53
2023-12-09T00:28:01.127Z,19.13
2023-12-09T00:29:01.110Z,20.07
2023-12-09T00:30:01.500Z,20.93
2023-12-09T00:31:01.175Z,22.10
2023-12-09T00:32:01.114Z,25.20
2023-12-09T00:33:01.523Z,30.30
2023-12-09T00:34:01.756Z,30.87
2023-12-09T00:35:01.556Z,29.97
2023-12-09T00:36:01.259Z,39.77
2023-12-09T00:37:01.103Z,38.40
2023-12-09T00:38:01.419Z,40.60
2023-12-09T00:39:01.661Z,37.10
2023-12-09T00:40:01.096Z,36.53
2023-12-09T00:41:01.169Z,35.63
2023-12-09T00:42:01.459Z,35.10
2023-12-09T00:43:01.102Z,32.57
2023-12-09T00:44:01.114Z,32.90
2023-12-09T00:45:01.475Z,30.40
2023-12-09T00:46:01.453Z,28.00
2023-12-09T00:47:01.327Z,27.73
2023-12-09T00:48:01.322Z,24.97
2023-12-09T00:49:01.185Z,33.77
2023-12-09T00:50:01.989Z,28.37
2023-12-09T00:51:01.196Z,24.93
2023-12-09T00:52:01.104Z,25.50
2023-12-09T00:53:01.439Z,25.47
2023-12-09T00:54:01.138Z,24.57
2023-12-09T00:55:01.678Z,21.03
2023-12-09T00:56:01.424Z,29.57
2023-12-09T00:57:01.447Z,36.40
2023-12-09T00:58:01.254Z,39.43
2023-12-09T00:59:01.216Z,41.33
2023-12-09T01:00:01.170Z,45.20
2023-12-09T01:01:01.475Z,42.23
2023-12-09T01:02:01.495Z,43.97
2023-12-09T01:03:01.526Z,39.87
2023-12-09T01:04:01.416Z,40.10
2023-12-09T01:05:01.278Z,37.90
2023-12-09T01:06:01.470Z,42.97
2023-12-09T01:07:01.098Z,43.20
2023-12-09T01:08:01.446Z,41.50
2023-12-09T01:09:01.353Z,37.33
2023-12-09T01:10:01.126Z,36.70
2023-12-09T01:11:01.135Z,38.63
2023-12-09T01:12:01.816Z,36.80
2023-12-09T01:13:01.425Z,35.17
2023-12-09T01:14:01.133Z,37.50
2023-12-09T01:15:01.491Z,36.27
2023-12-09T01:16:01.416Z,35.50
2023-12-09T01:17:01.106Z,37.00
2023-12-09T01:18:01.210Z,36.10
2023-12-09T01:19:01.125Z,32.23
2023-12-09T01:20:01.452Z,30.93
2023-12-09T01:21:01.435Z,25.73
2023-12-09T01:22:01.120Z,25.57
2023-12-09T01:23:01.126Z,27.57
2023-12-09T01:24:01.511Z,26.73
2023-12-09T01:25:01.498Z,24.73
2023-12-09T01:26:01.444Z,24.67
2023-12-09T01:27:01.495Z,25.60
2023-12-09T01:28:01.465Z,22.53
2023-12-09T01:29:01.447Z,25.40
2023-12-09T01:30:01.212Z,24.67
2023-12-09T01:31:01.235Z,24.80
2023-12-09T01:32:01.125Z,26.03
2023-12-09T01:33:01.260Z,24.13
2023-12-09T01:34:01.267Z,23.93
2023-12-09T01:35:01.274Z,22.97
2023-12-09T01:36:01.109Z,22.87
2023-12-09T01:37:01.103Z,21.27
2023-12-09T01:38:01.434Z,22.43
2023-12-09T01:39:01.257Z,19.70
2023-12-09T01:40:01.129Z,21.80
2023-12-09T01:41:01.514Z,22.10
2023-12-09T01:42:01.373Z,27.40
2023-12-09T01:43:01.430Z,30.83
2023-12-09T01:44:01.114Z,33.87
2023-12-09T01:45:01.554Z,24.10
2023-12-09T01:46:05.511Z,25.20
2023-12-09T01:47:01.637Z,25.60
2023-12-09T01:48:01.515Z,27.33
2023-12-09T01:49:01.829Z,25.30
2023-12-09T01:50:01.959Z,25.87
2023-12-09T01:51:02.229Z,27.43
2023-12-09T01:52:02.583Z,30.93
2023-12-09T01:53:01.796Z,27.13
2023-12-09T01:54:01.551Z,26.50
2023-12-09T01:55:01.696Z,26.83
2023-12-09T01:56:03.546Z,25.23
2023-12-09T01:57:01.284Z,25.60
2023-12-09T01:58:01.539Z,24.50
2023-12-09T01:59:02.364Z,25.53
2023-12-09T02:00:02.683Z,26.03
2023-12-09T02:01:01.171Z,28.83
2023-12-09T02:02:01.715Z,29.03
2023-12-09T02:03:01.707Z,28.23
2023-12-09T02:04:02.705Z,30.87
2023-12-09T02:05:02.773Z,33.93
2023-12-09T02:06:01.631Z,30.23
2023-12-09T02:07:01.476Z,28.70
2023-12-09T02:08:01.603Z,27.10
2023-12-09T02:09:01.628Z,28.27
2023-12-09T02:10:01.267Z,31.50
2023-12-09T02:11:11.516Z,30.63
2023-12-09T02:12:11.440Z,32.37
2023-12-09T02:13:11.421Z,28.87
2023-12-09T02:14:07.031Z,26.57
2023-12-09T02:15:07.000Z,25.50
2023-12-09T02:16:09.766Z,25.00
2023-12-09T02:17:08.301Z,26.03
2023-12-09T02:18:04.021Z,25.13
2023-12-09T02:19:02.062Z,21.33
2023-12-09T02:20:02.713Z,21.13
2023-12-09T02:21:01.157Z,25.37
2023-12-09T02:22:03.183Z,26.37
2023-12-09T02:23:05.761Z,29.27
2023-12-09T02:24:01.163Z,24.10
2023-12-09T02:25:01.116Z,24.70
2023-12-09T02:26:07.967Z,24.87
2023-12-09T02:27:08.761Z,22.63
2023-12-09T02:28:05.922Z,25.73
2023-12-09T02:29:08.052Z,26.73
2023-12-09T02:30:13.787Z,26.03
2023-12-09T02:31:11.685Z,25.63
2023-12-09T02:32:05.835Z,28.90
2023-12-09T02:33:05.103Z,31.07
2023-12-09T02:34:03.345Z,32.50
2023-12-09T02:35:03.747Z,28.60
2023-12-09T02:36:03.975Z,29.63
2023-12-09T02:37:03.893Z,30.17
2023-12-09T02:38:02.688Z,40.40
2023-12-09T02:39:02.520Z,78.13
2023-12-09T02:40:02.396Z,76.80
2023-12-09T02:41:02.336Z,50.97
2023-12-09T02:42:04.242Z,106.37
2023-12-09T02:43:03.071Z,75.20
2023-12-09T02:44:01.441Z,63.10
2023-12-09T02:45:01.768Z,36.30
2023-12-09T02:46:01.132Z,38.50
2023-12-09T02:47:01.654Z,34.40
2023-12-09T02:48:01.473Z,31.00
2023-12-09T02:49:01.616Z,35.93
2023-12-09T02:50:01.433Z,37.03
2023-12-09T02:51:01.664Z,30.47
2023-12-09T02:52:01.107Z,27.30
2023-12-09T02:53:01.446Z,34.03
2023-12-09T02:54:01.151Z,31.00
2023-12-09T02:55:01.139Z,29.03
2023-12-09T02:56:01.092Z,32.43
2023-12-09T02:57:01.545Z,34.20
2023-12-09T02:58:01.104Z,32.70
2023-12-09T02:59:01.334Z,34.50
2023-12-09T03:00:01.218Z,34.07
2023-12-09T03:01:01.152Z,33.90
2023-12-09T03:02:01.096Z,28.50
2023-12-09T03:03:01.207Z,28.83
2023-12-09T03:04:02.140Z,31.23
2023-12-09T03:05:01.154Z,33.60
2023-12-09T03:06:01.112Z,35.63
2023-12-09T03:07:01.495Z,36.97
2023-12-09T03:08:01.128Z,41.70
2023-12-09T03:09:01.135Z,54.73
2023-12-09T03:10:01.362Z,39.43
2023-12-09T03:11:01.100Z,39.50
2023-12-09T03:12:01.166Z,34.50
2023-12-09T03:13:01.429Z,36.23
2023-12-09T03:14:01.411Z,36.20
2023-12-09T03:15:01.202Z,36.40
2023-12-09T03:16:01.451Z,34.53
2023-12-09T03:17:01.112Z,31.47
2023-12-09T03:18:01.374Z,32.60
2023-12-09T03:22:02.296Z,35.03
2023-12-09T03:23:01.129Z,36.57
2023-12-09T03:24:01.432Z,36.40
2023-12-09T03:25:01.183Z,34.30
2023-12-09T03:26:01.411Z,34.23
2023-12-09T03:27:01.109Z,34.80
2023-12-09T03:28:01.774Z,34.60
2023-12-09T03:29:01.100Z,35.23
2023-12-09T03:30:01.602Z,36.00
2023-12-09T03:31:02.194Z,33.23
2023-12-09T03:32:01.096Z,34.83
2023-12-09T03:37:01.755Z,35.30
2023-12-09T03:38:01.524Z,34.33
2023-12-09T03:39:01.554Z,36.50
2023-12-09T03:40:02.018Z,32.50
2023-12-09T03:41:03.597Z,34.33
2023-12-09T03:42:01.573Z,35.47
2023-12-09T03:43:01.202Z,35.47
2023-12-09T03:44:01.816Z,34.27
2023-12-09T03:45:01.548Z,31.83
2023-12-09T03:46:01.857Z,34.70
2023-12-09T03:47:04.840Z,32.60
2023-12-09T03:48:01.934Z,36.33
2023-12-09T03:49:01.698Z,35.13
2023-12-09T03:50:01.558Z,34.83
2023-12-09T03:51:01.539Z,37.20
2023-12-09T03:52:01.192Z,36.57
2023-12-09T03:53:01.194Z,38.07
2023-12-09T03:54:01.561Z,42.23
2023-12-09T03:55:01.198Z,40.23
2023-12-09T03:56:01.194Z,44.57
2023-12-09T03:57:01.237Z,42.13
2023-12-09T03:58:01.198Z,44.13
2023-12-09T03:59:01.428Z,39.30
2023-12-09T04:00:01.245Z,40.77
2023-12-09T04:01:01.516Z,40.33
2023-12-09T04:02:01.317Z,41.50
2023-12-09T04:03:01.258Z,42.60
2023-12-09T04:04:01.295Z,41.83
2023-12-09T04:05:01.546Z,40.80
2023-12-09T04:06:01.252Z,41.43
2023-12-09T04:07:01.521Z,40.60
2023-12-09T04:08:01.198Z,38.73
2023-12-09T04:09:01.246Z,43.17
2023-12-09T04:10:01.428Z,42.77
2023-12-09T04:11:01.196Z,41.27
2023-12-09T04:12:01.760Z,39.63
2023-12-09T04:13:01.194Z,39.73
2023-12-09T04:14:01.499Z,40.83
2023-12-09T04:15:01.568Z,42.60
2023-12-09T04:16:01.781Z,41.17
2023-12-09T04:17:01.206Z,43.83
2023-12-09T04:18:01.427Z,40.87
2023-12-09T04:19:01.319Z,43.87
2023-12-09T04:20:01.269Z,42.50
2023-12-09T04:21:01.423Z,40.80
2023-12-09T04:22:01.185Z,44.30
2023-12-09T04:23:01.499Z,41.93
2023-12-09T04:24:01.212Z,43.30
2023-12-09T04:25:01.176Z,41.33
2023-12-09T04:26:01.523Z,41.57
2023-12-09T04:27:01.253Z,44.93
2023-12-09T04:28:01.282Z,44.10
2023-12-09T04:29:01.261Z,43.17
2023-12-09T04:30:03.146Z,44.77
2023-12-09T04:31:01.507Z,42.40
2023-12-09T04:32:01.327Z,42.37
2023-12-09T04:33:01.225Z,41.00
2023-12-09T04:34:01.383Z,42.70
2023-12-09T04:35:01.667Z,43.00
2023-12-09T04:36:01.588Z,41.17
2023-12-09T04:37:01.533Z,42.20
2023-12-09T04:38:01.225Z,43.13
2023-12-09T04:39:01.579Z,39.67
2023-12-09T04:40:01.390Z,42.70
2023-12-09T04:41:01.240Z,40.40
2023-12-09T04:42:01.203Z,42.30
2023-12-09T04:43:01.343Z,39.23
2023-12-09T04:44:01.211Z,42.10
2023-12-09T04:45:01.234Z,42.37
2023-12-09T04:46:01.176Z,41.77
2023-12-09T04:47:02.712Z,41.60
2023-12-09T04:48:01.461Z,41.63
2023-12-09T04:49:01.716Z,43.20
2023-12-09T04:50:01.183Z,41.87
2023-12-09T04:51:01.236Z,39.47
2023-12-09T04:52:01.532Z,42.10
2023-12-09T04:53:01.512Z,42.47
2023-12-09T04:54:01.387Z,40.10
2023-12-09T04:55:01.306Z,39.97
2023-12-09T04:56:01.530Z,39.93
2023-12-09T04:57:01.270Z,41.10
2023-12-09T04:58:01.562Z,40.57
2023-12-09T04:59:01.182Z,37.23
2023-12-09T05:00:02.587Z,40.00
2023-12-09T05:01:01.175Z,38.10
2023-12-09T05:02:01.196Z,40.20
2023-12-09T05:03:01.255Z,40.57
2023-12-09T05:04:01.369Z,39.80
2023-12-09T05:05:01.404Z,41.50
2023-12-09T05:06:01.401Z,36.57
2023-12-09T05:07:01.521Z,37.60
2023-12-09T05:08:01.187Z,39.70
2023-12-09T05:09:01.600Z,39.40
2023-12-09T05:10:01.210Z,40.73
2023-12-09T05:11:01.501Z,42.43
2023-12-09T05:12:01.245Z,40.23
2023-12-09T05:13:01.518Z,39.97
2023-12-09T05:14:01.546Z,41.13
2023-12-09T05:15:01.566Z,42.50
2023-12-09T05:16:01.430Z,40.07
2023-12-09T05:17:01.513Z,40.87
2023-12-09T05:18:01.335Z,39.73
2023-12-09T05:19:01.375Z,41.27
2023-12-09T05:20:01.191Z,40.83
2023-12-09T05:21:01.516Z,38.67
2023-12-09T05:22:01.504Z,40.80
2023-12-09T05:23:01.523Z,41.30
2023-12-09T05:24:01.205Z,38.70
2023-12-09T05:25:01.179Z,39.33
2023-12-09T05:26:01.189Z,40.00
2023-12-09T05:27:01.746Z,37.00
2023-12-09T05:28:01.177Z,39.93
2023-12-09T05:29:01.201Z,36.20
2023-12-09T05:30:01.299Z,37.87
2023-12-09T05:31:01.192Z,38.00
2023-12-09T05:32:01.168Z,39.50
2023-12-09T05:33:01.661Z,38.20
2023-12-09T05:34:01.331Z,38.27
2023-12-09T05:35:01.180Z,39.03
2023-12-09T05:36:01.192Z,37.83
2023-12-09T05:37:01.260Z,39.73
2023-12-09T05:38:01.794Z,38.70
2023-12-09T05:39:01.203Z,37.60
2023-12-09T05:40:01.185Z,39.10
2023-12-09T05:41:01.930Z,39.67
2023-12-09T05:42:01.535Z,39.60
2023-12-09T05:43:01.189Z,42.90
2023-12-09T05:44:01.191Z,38.20
2023-12-09T05:45:01.277Z,39.77
2023-12-09T05:46:03.802Z,38.10
2023-12-09T05:47:01.539Z,40.07
2023-12-09T05:48:01.629Z,39.30
2023-12-09T05:49:01.422Z,40.37
2023-12-09T05:50:01.555Z,39.13
2023-12-09T05:51:02.193Z,40.57
2023-12-09T05:52:01.190Z,36.80
2023-12-09T05:53:02.638Z,39.40
2023-12-09T05:54:01.541Z,40.43
2023-12-09T05:55:01.594Z,40.50
2023-12-09T05:56:01.212Z,42.90
2023-12-09T05:57:01.259Z,39.57
2023-12-09T05:58:02.663Z,41.17
2023-12-09T05:59:01.588Z,39.23
2023-12-09T06:00:01.832Z,42.40
2023-12-09T06:01:01.710Z,38.10
2023-12-09T06:02:01.207Z,40.60
2023-12-09T06:03:01.517Z,40.47
2023-12-09T06:04:01.238Z,41.53
2023-12-09T06:05:01.196Z,42.30
2023-12-09T06:06:01.240Z,42.17
2023-12-09T06:07:01.279Z,43.13
2023-12-09T06:08:01.717Z,41.87
2023-12-09T06:09:01.210Z,42.77
2023-12-09T06:10:01.564Z,43.27
2023-12-09T06:11:02.097Z,42.43
2023-12-09T06:12:01.218Z,41.40
2023-12-09T06:13:01.223Z,42.37
2023-12-09T06:14:01.182Z,40.53
2023-12-09T06:15:01.302Z,40.97
2023-12-09T06:16:01.574Z,42.67
2023-12-09T06:17:01.194Z,38.60
2023-12-09T06:18:01.358Z,42.87
2023-12-09T06:19:01.224Z,41.97
2023-12-09T06:20:01.273Z,40.40
2023-12-09T06:21:01.249Z,41.90
2023-12-09T06:22:01.436Z,40.27
2023-12-09T06:23:01.195Z,40.07
2023-12-09T06:24:01.560Z,41.50
2023-12-09T06:25:01.552Z,41.57
2023-12-09T06:26:02.689Z,40.37
2023-12-09T06:27:01.236Z,41.33
2023-12-09T06:28:01.204Z,43.97
2023-12-09T06:29:01.205Z,39.97
2023-12-09T06:30:01.587Z,42.33
2023-12-09T06:31:01.171Z,42.20
2023-12-09T06:32:01.188Z,43.00
2023-12-09T06:33:01.457Z,38.73
2023-12-09T06:34:01.368Z,40.47
2023-12-09T06:35:01.199Z,39.43
2023-12-09T06:36:01.192Z,39.30
2023-12-09T06:37:01.556Z,38.67
2023-12-09T06:38:01.172Z,38.80
2023-12-09T06:39:03.249Z,36.90
2023-12-09T06:40:01.175Z,39.23
2023-12-09T06:41:01.194Z,39.10
2023-12-09T06:42:01.622Z,38.33
2023-12-09T06:43:01.178Z,37.63
2023-12-09T06:44:01.321Z,38.23
2023-12-09T06:45:01.228Z,38.63
2023-12-09T06:46:01.300Z,39.13
2023-12-09T06:47:01.190Z,39.73
2023-12-09T06:48:01.385Z,39.40
2023-12-09T06:49:03.838Z,40.70
2023-12-09T06:50:01.509Z,39.30
2023-12-09T06:51:01.600Z,42.00
2023-12-09T06:52:01.556Z,40.77
2023-12-09T06:53:01.225Z,39.87
2023-12-09T06:54:01.247Z,40.67
2023-12-09T06:55:01.652Z,39.60
2023-12-09T06:56:01.524Z,38.33
2023-12-09T06:57:01.224Z,40.03
2023-12-09T06:58:02.517Z,41.50
2023-12-09T06:59:01.193Z,42.47
2023-12-09T07:00:01.749Z,40.27
2023-12-09T07:01:01.387Z,41.23
2023-12-09T07:02:01.180Z,39.43
2023-12-09T07:03:01.465Z,39.87
2023-12-09T07:04:01.666Z,41.80
2023-12-09T07:05:01.229Z,40.33
2023-12-09T07:06:02.051Z,41.47
2023-12-09T07:07:01.548Z,40.83
2023-12-09T07:08:01.191Z,41.20
2023-12-09T07:09:01.211Z,40.63
2023-12-09T07:10:01.183Z,39.80
2023-12-09T07:11:01.269Z,39.33
2023-12-09T07:12:02.794Z,40.30
2023-12-09T07:13:01.198Z,39.00
2023-12-09T07:14:01.241Z,39.87
2023-12-09T07:15:01.228Z,39.27
2023-12-09T07:16:01.651Z,38.57
2023-12-09T07:17:01.514Z,39.63
2023-12-09T07:18:01.361Z,37.97
2023-12-09T07:19:01.770Z,37.93
2023-12-09T07:20:01.567Z,39.07
2023-12-09T07:21:01.233Z,36.53
2023-12-09T07:22:01.219Z,37.07
2023-12-09T07:23:01.649Z,38.00
2023-12-09T07:24:01.260Z,36.70
2023-12-09T07:25:01.537Z,38.53
2023-12-09T07:26:01.504Z,37.57
2023-12-09T07:27:01.274Z,37.70
2023-12-09T07:28:01.514Z,37.40
2023-12-09T07:29:01.178Z,39.63
2023-12-09T07:30:01.673Z,38.43
2023-12-09T07:31:01.863Z,36.70
2023-12-09T07:32:01.494Z,37.83
2023-12-09T07:33:01.298Z,37.50
2023-12-09T07:34:01.705Z,38.33
2023-12-09T07:35:01.278Z,37.40
2023-12-09T07:36:01.632Z,36.90
2023-12-09T07:37:01.520Z,38.07
2023-12-09T07:38:01.175Z,34.57
2023-12-09T07:39:01.459Z,37.17
2023-12-09T07:40:01.204Z,36.80
2023-12-09T07:41:01.186Z,35.30
2023-12-09T07:42:01.257Z,37.20
2023-12-09T07:43:01.190Z,35.83
2023-12-09T07:44:01.185Z,36.97
2023-12-09T07:45:01.212Z,36.77
2023-12-09T07:46:01.185Z,37.97
2023-12-09T07:47:01.306Z,34.03
2023-12-09T07:48:01.462Z,36.70
2023-12-09T07:49:01.604Z,34.13
2023-12-09T07:50:01.553Z,35.43
2023-12-09T07:51:01.383Z,32.90
2023-12-09T07:52:01.203Z,34.43
2023-12-09T07:53:01.620Z,39.07
2023-12-09T07:54:01.567Z,38.00
2023-12-09T07:55:01.202Z,36.17
2023-12-09T07:56:01.172Z,38.73
2023-12-09T07:57:01.215Z,38.80
2023-12-09T07:58:01.505Z,37.93
2023-12-09T07:59:01.186Z,36.47
2023-12-09T08:00:01.227Z,35.77
2023-12-09T08:01:01.855Z,38.23
2023-12-09T08:02:01.183Z,37.50
2023-12-09T08:03:04.229Z,33.70
2023-12-09T08:04:01.598Z,35.53
2023-12-09T08:05:01.579Z,33.07
2023-12-09T08:06:01.270Z,36.87
2023-12-09T08:07:01.520Z,35.97
2023-12-09T08:08:01.562Z,35.90
2023-12-09T08:09:01.253Z,35.47
2023-12-09T08:10:01.194Z,35.90
2023-12-09T08:11:01.198Z,38.40
2023-12-09T08:12:01.447Z,34.33
2023-12-09T08:13:01.193Z,35.43
2023-12-09T08:14:01.523Z,36.10
2023-12-09T08:15:01.275Z,37.97
2023-12-09T08:16:01.196Z,37.57
2023-12-09T08:17:01.188Z,34.13
2023-12-09T08:18:01.728Z,38.47
2023-12-09T08:19:01.582Z,37.60
2023-12-09T08:20:01.502Z,34.07
2023-12-09T08:21:01.513Z,37.13
2023-12-09T08:22:01.613Z,34.57
2023-12-09T08:23:01.873Z,38.80
2023-12-09T08:24:01.213Z,35.47
2023-12-09T08:25:01.181Z,37.20
2023-12-09T08:26:01.181Z,37.67
2023-12-09T08:27:01.233Z,39.20
2023-12-09T08:28:01.512Z,39.97
2023-12-09T08:29:01.182Z,37.83
2023-12-09T08:30:01.333Z,36.43
2023-12-09T08:31:01.529Z,37.00
2023-12-09T08:32:01.695Z,36.33
2023-12-09T08:33:01.671Z,36.00
2023-12-09T08:34:01.332Z,35.50
2023-12-09T08:35:09.079Z,36.93
2023-12-09T08:36:01.214Z,34.80
2023-12-09T08:37:01.569Z,35.27
2023-12-09T08:38:01.190Z,37.23
2023-12-09T08:39:01.230Z,36.37
2023-12-09T08:40:05.356Z,33.90
2023-12-09T08:41:01.515Z,36.30
2023-12-09T08:42:01.253Z,38.30
2023-12-09T08:43:01.212Z,34.90
2023-12-09T08:44:02.752Z,35.20
2023-12-09T08:45:01.439Z,33.60
2023-12-09T08:46:01.193Z,35.93
2023-12-09T08:47:01.618Z,36.13
2023-12-09T08:48:01.333Z,36.27
2023-12-09T08:49:01.387Z,36.53
2023-12-09T08:50:02.022Z,34.27
2023-12-09T08:51:01.207Z,35.43
2023-12-09T08:52:01.199Z,36.50
2023-12-09T08:53:01.548Z,35.83
2023-12-09T08:54:01.523Z,37.30
2023-12-09T08:55:02.139Z,35.80
2023-12-09T08:56:01.413Z,36.67
2023-12-09T08:57:01.618Z,34.47
2023-12-09T08:58:01.184Z,36.87
2023-12-09T08:59:01.177Z,37.20
2023-12-09T09:00:01.904Z,37.17
2023-12-09T09:01:01.589Z,38.23
2023-12-09T09:02:01.507Z,34.97
2023-12-09T09:03:01.551Z,36.67
2023-12-09T09:04:01.962Z,37.03
2023-12-09T09:05:01.273Z,37.63
2023-12-09T09:06:01.728Z,35.40
2023-12-09T09:07:01.314Z,35.57
2023-12-09T09:08:01.176Z,35.63
2023-12-09T09:09:01.572Z,34.60
2023-12-09T09:10:01.179Z,35.00
2023-12-09T09:11:01.727Z,33.97
2023-12-09T09:12:01.566Z,35.10
2023-12-09T09:13:01.490Z,34.20
2023-12-09T09:14:01.175Z,36.03
2023-12-09T09:15:05.034Z,35.00
2023-12-09T09:16:01.233Z,34.20
2023-12-09T09:17:01.168Z,33.23
2023-12-09T09:18:01.838Z,35.20
2023-12-09T09:19:01.568Z,36.50
2023-12-09T09:20:01.543Z,35.07
2023-12-09T09:21:01.202Z,33.90
2023-12-09T09:22:01.209Z,35.43
2023-12-09T09:23:01.185Z,36.17
2023-12-09T09:24:01.206Z,36.13
2023-12-09T09:25:01.803Z,32.10
2023-12-09T09:26:01.244Z,35.27
2023-12-09T09:27:01.247Z,34.97
2023-12-09T09:28:01.534Z,35.57
2023-12-09T09:29:01.340Z,34.60
2023-12-09T09:30:01.637Z,34.40
2023-12-09T09:31:01.185Z,33.80
2023-12-09T09:32:01.197Z,34.23
2023-12-09T09:33:01.471Z,33.17
2023-12-09T09:34:01.304Z,31.90
2023-12-09T09:35:01.599Z,33.63
2023-12-09T09:36:01.197Z,33.83
2023-12-09T09:37:01.515Z,35.97
2023-12-09T09:38:01.179Z,32.70
2023-12-09T09:39:01.552Z,33.73
2023-12-09T09:40:01.507Z,35.50
2023-12-09T09:41:07.121Z,35.63
2023-12-09T09:42:09.868Z,34.40
2023-12-09T09:43:07.894Z,35.67
2023-12-09T09:44:11.675Z,33.47
2023-12-09T09:45:10.081Z,35.20
2023-12-09T09:46:01.793Z,34.07
2023-12-09T09:47:01.936Z,35.43
2023-12-09T09:48:04.204Z,33.13
2023-12-09T09:49:03.181Z,33.70
2023-12-09T09:50:02.722Z,34.67
2023-12-09T09:51:03.586Z,35.17
2023-12-09T09:52:02.574Z,32.70
2023-12-09T09:53:03.391Z,34.50
2023-12-09T09:54:10.558Z,36.70
2023-12-09T09:55:02.400Z,33.93
2023-12-09T09:56:01.892Z,33.50
2023-12-09T09:57:02.059Z,33.47
2023-12-09T09:58:02.420Z,34.13
2023-12-09T09:59:01.553Z,33.47
2023-12-09T10:00:01.794Z,32.60
2023-12-09T10:01:03.779Z,34.07
2023-12-09T10:02:04.169Z,35.70
2023-12-09T10:03:04.239Z,33.53
2023-12-09T10:04:01.372Z,33.17
2023-12-09T10:05:01.201Z,34.90
2023-12-09T10:06:02.146Z,34.13
2023-12-09T10:07:03.676Z,34.27
2023-12-09T10:08:01.412Z,34.70
2023-12-09T10:09:01.819Z,34.57
2023-12-09T10:10:01.655Z,34.90
2023-12-09T10:11:01.204Z,34.40
2023-12-09T10:12:01.222Z,33.17
2023-12-09T10:13:01.396Z,32.77
2023-12-09T10:14:01.212Z,31.27
2023-12-09T10:15:01.860Z,33.50
2023-12-09T10:16:01.516Z,31.23
2023-12-09T10:17:03.087Z,33.70
2023-12-09T10:18:02.321Z,32.83
2023-12-09T10:19:01.699Z,35.17
2023-12-09T10:20:01.658Z,34.73
2023-12-09T10:21:01.593Z,33.77
2023-12-09T10:22:01.521Z,36.03
2023-12-09T10:23:01.540Z,35.07
2023-12-09T10:24:04.437Z,34.73
2023-12-09T10:25:01.596Z,34.83
2023-12-09T10:26:02.135Z,34.70
2023-12-09T10:27:01.639Z,34.30
2023-12-09T10:28:01.648Z,34.93
2023-12-09T10:29:01.325Z,31.97
2023-12-09T10:30:01.905Z,32.87
2023-12-09T10:31:01.787Z,33.17
2023-12-09T10:32:01.250Z,35.57
2023-12-09T10:33:01.569Z,33.00
2023-12-09T10:34:01.971Z,35.83
2023-12-09T10:35:04.520Z,32.63
2023-12-09T10:36:01.648Z,31.40
2023-12-09T10:37:01.759Z,32.87
2023-12-09T10:38:01.244Z,34.60
2023-12-09T10:39:03.435Z,34.70
2023-12-09T10:40:02.703Z,33.40
2023-12-09T10:41:04.650Z,33.87
2023-12-09T10:42:03.600Z,33.10
2023-12-09T10:43:01.771Z,34.17
2023-12-09T10:44:01.499Z,35.33
2023-12-09T10:45:02.281Z,33.50
2023-12-09T10:46:02.935Z,33.30
2023-12-09T10:47:01.280Z,33.90
2023-12-09T10:48:01.363Z,33.77
2023-12-09T10:49:01.274Z,32.30
2023-12-09T10:50:01.581Z,32.77
2023-12-09T10:51:01.279Z,33.03
2023-12-09T10:52:01.664Z,34.37
2023-12-09T10:53:01.212Z,34.07
2023-12-09T10:54:01.267Z,34.03
2023-12-09T10:55:01.194Z,33.00
2023-12-09T10:56:02.217Z,33.07
2023-12-09T10:57:02.903Z,33.20
2023-12-09T10:58:04.369Z,34.83
2023-12-09T10:59:02.156Z,34.40
2023-12-09T11:00:02.698Z,33.23
2023-12-09T11:01:02.490Z,35.87
2023-12-09T11:02:01.969Z,32.13
2023-12-09T11:03:02.331Z,32.57
2023-12-09T11:04:02.159Z,32.97
2023-12-09T11:05:02.057Z,34.07
2023-12-09T11:06:04.712Z,34.97
2023-12-09T11:07:04.555Z,33.47
2023-12-09T11:08:02.025Z,31.83
2023-12-09T11:09:02.402Z,32.87
2023-12-09T11:10:03.597Z,33.50
2023-12-09T11:11:02.602Z,33.07
2023-12-09T11:12:01.354Z,31.43
2023-12-09T11:13:01.657Z,30.63
2023-12-09T11:14:01.519Z,33.33
2023-12-09T11:15:06.016Z,33.23
2023-12-09T11:16:10.428Z,32.67
2023-12-09T11:17:01.543Z,33.13
2023-12-09T11:18:08.069Z,35.30
2023-12-09T11:19:01.645Z,35.83
2023-12-09T11:20:04.096Z,32.37
2023-12-09T11:21:03.045Z,35.90
2023-12-09T11:22:01.174Z,32.17
2023-12-09T11:23:01.202Z,35.13
2023-12-09T11:24:01.566Z,32.63
2023-12-09T11:25:01.185Z,34.40
2023-12-09T11:26:01.204Z,32.30
2023-12-09T11:27:01.211Z,33.40
2023-12-09T11:28:03.362Z,33.10
2023-12-09T11:29:03.368Z,32.83
2023-12-09T11:30:02.350Z,33.03
2023-12-09T11:31:02.283Z,36.00
2023-12-09T11:32:07.092Z,35.10
2023-12-09T11:33:02.084Z,35.17
2023-12-09T11:34:02.660Z,34.27
2023-12-09T11:35:02.342Z,33.27
2023-12-09T11:36:02.745Z,31.87
2023-12-09T11:37:02.401Z,35.50
2023-12-09T11:38:03.556Z,35.50
2023-12-09T11:39:02.137Z,31.80
2023-12-09T11:40:01.949Z,32.50
2023-12-09T11:41:01.718Z,35.10
2023-12-09T11:42:01.906Z,33.57
2023-12-09T11:43:02.780Z,33.33
2023-12-09T11:44:02.058Z,30.30
2023-12-09T11:45:03.148Z,33.83
2023-12-09T11:46:02.289Z,34.43
2023-12-09T11:47:02.078Z,33.70
2023-12-09T11:48:02.243Z,33.97
2023-12-09T11:49:03.506Z,36.37
2023-12-09T11:50:02.412Z,35.77
2023-12-09T11:51:02.966Z,35.87
2023-12-09T11:52:01.876Z,34.53
2023-12-09T11:53:01.514Z,30.83
2023-12-09T11:54:03.802Z,35.83
2023-12-09T11:55:02.130Z,33.10
2023-12-09T11:56:01.539Z,37.40
2023-12-09T11:57:02.944Z,35.63
2023-12-09T11:58:01.199Z,35.03
2023-12-09T11:59:01.692Z,34.47
2023-12-09T12:00:01.601Z,34.00
2023-12-09T12:01:01.318Z,35.67
2023-12-09T12:02:01.221Z,33.23
2023-12-09T12:03:01.523Z,33.77
2023-12-09T12:04:01.706Z,33.23
2023-12-09T12:05:01.556Z,33.93
2023-12-09T12:06:01.669Z,33.43
2023-12-09T12:07:01.707Z,34.00
2023-12-09T12:08:01.211Z,29.57
2023-12-09T12:09:01.792Z,36.00
2023-12-09T12:10:01.452Z,34.80
2023-12-09T12:11:01.225Z,34.43
2023-12-09T12:12:01.367Z,31.00
2023-12-09T12:13:01.777Z,33.83
2023-12-09T12:14:02.068Z,30.47
2023-12-09T12:15:02.596Z,34.47
2023-12-09T12:16:01.661Z,34.47
2023-12-09T12:17:01.725Z,32.13
2023-12-09T12:18:01.595Z,31.60
2023-12-09T12:19:01.627Z,34.97
2023-12-09T12:20:01.206Z,33.80
2023-12-09T12:21:01.828Z,35.57
2023-12-09T12:22:01.629Z,39.60
2023-12-09T12:23:02.230Z,36.97
2023-12-09T12:24:02.848Z,36.07
2023-12-09T12:25:01.775Z,33.70
2023-12-09T12:26:01.855Z,35.07
2023-12-09T12:27:03.251Z,34.27
2023-12-09T12:28:01.276Z,29.87
2023-12-09T12:29:01.437Z,35.77
2023-12-09T12:30:01.765Z,34.60
2023-12-09T12:31:01.821Z,30.30
2023-12-09T12:32:01.642Z,34.60
2023-12-09T12:33:02.284Z,35.33
2023-12-09T12:34:14.313Z,33.10
2023-12-09T12:35:03.120Z,34.73
2023-12-09T12:36:01.335Z,33.53
2023-12-09T12:37:01.660Z,34.83
2023-12-09T12:38:01.610Z,34.13
2023-12-09T12:39:01.303Z,33.63
2023-12-09T12:40:01.285Z,34.43
2023-12-09T12:41:01.403Z,34.13
2023-12-09T12:42:01.388Z,35.10
2023-12-09T12:43:02.741Z,32.80
2023-12-09T12:44:01.652Z,34.13
2023-12-09T12:45:01.231Z,36.57
2023-12-09T12:46:01.494Z,37.13
2023-12-09T12:47:01.365Z,36.47
2023-12-09T12:48:01.432Z,32.93
2023-12-09T12:49:01.838Z,35.80
2023-12-09T12:50:01.252Z,36.07
2023-12-09T12:51:01.424Z,33.17
2023-12-09T12:52:01.812Z,35.53
2023-12-09T12:53:01.368Z,33.77
2023-12-09T12:54:02.189Z,36.20
2023-12-09T12:55:02.002Z,36.80
2023-12-09T12:56:01.311Z,35.40
2023-12-09T12:57:01.607Z,33.60
2023-12-09T12:58:01.897Z,35.53
2023-12-09T12:59:01.231Z,36.80